Time;durP1;ratioP1;P1;durP2;ratioP2;P2;SDS_P1;SDS_P2;PMS_P1;PMS_P2;Temp;Humidity;BMP_temperature;BMP_pressure;BME280_temperature;BME280_humidity;BME280_pressure;Samples;Min_cycle;Max_cycle;Signal;HPM_P1;HPM_P2
2023/04/02 00:05:18;;;;;;;4.13;2.00;;;2.90;99.90;;;;;;10407639;28;20219;-75
2023/04/02 00:10:47;;;;;;;6.77;2.80;;;2.90;99.90;;;;;;10435178;28;20194;-77
2023/04/02 00:16:12;;;;;;;4.87;2.47;;;3.00;99.90;;;;;;10420437;28;20189;-76
2023/04/02 00:21:35;;;;;;;6.40;2.10;;;;;;;;;;10416172;28;20232;-79
2023/04/02 00:26:57;;;;;;;6.57;2.43;;;2.80;99.90;;;;;;10405358;28;20309;-79
2023/04/02 00:32:26;;;;;;;7.60;2.67;;;2.80;99.90;;;;;;10416299;28;20297;-81
2023/04/02 00:37:49;;;;;;;6.80;3.53;;;2.70;99.90;;;;;;10435113;28;20228;-78
2023/04/02 00:43:15;;;;;;;11.00;5.70;;;2.70;99.90;;;;;;10426876;28;20242;-77
2023/04/02 00:48:48;;;;;;;7.50;4.37;;;2.70;99.90;;;;;;10444304;28;20422;-76
2023/04/02 00:54:14;;;;;;;23.10;11.13;;;2.60;99.90;;;;;;10482775;28;20269;-76
2023/04/02 00:59:56;;;;;;;9.17;5.63;;;2.70;99.90;;;;;;10475376;28;20369;-78
2023/04/02 01:05:22;;;;;;;32.33;13.03;;;2.60;99.90;;;;;;10435701;28;20198;-80
2023/04/02 01:11:01;;;;;;;17.00;6.60;;;2.50;99.90;;;;;;10440857;28;20232;-75
2023/04/02 01:16:24;;;;;;;12.77;4.07;;;2.60;99.90;;;;;;10439619;28;20237;-76
2023/04/02 01:21:52;;;;;;;6.80;2.73;;;2.50;99.90;;;;;;10423739;28;20230;-77
2023/04/02 01:27:27;;;;;;;7.57;2.50;;;2.60;99.90;;;;;;10437252;28;20394;-76
2023/04/02 01:32:49;;;;;;;6.03;2.80;;;2.60;99.90;;;;;;10432538;28;20222;-76
2023/04/02 01:38:21;;;;;;;9.07;3.57;;;2.60;99.90;;;;;;10416468;28;20208;-77
2023/04/02 01:44:07;;;;;;;12.27;6.40;;;2.70;99.90;;;;;;10438256;28;20266;-78
2023/04/02 01:49:28;;;;;;;9.63;3.70;;;2.60;99.90;;;;;;10426835;28;20214;-79
2023/04/02 01:54:51;;;;;;;6.23;2.43;;;2.60;99.90;;;;;;10464692;28;20414;-77
2023/04/02 02:00:14;;;;;;;9.77;3.60;;;2.60;99.90;;;;;;10467313;28;20212;-78
2023/04/02 02:05:40;;;;;;;12.00;7.13;;;2.60;99.90;;;;;;10437740;28;20201;-77
2023/04/02 02:11:03;;;;;;;8.13;5.40;;;2.60;99.90;;;;;;10405748;28;20259;-78
2023/04/02 02:16:26;;;;;;;6.80;2.60;;;2.60;99.90;;;;;;10397379;28;20198;-78
2023/04/02 02:22:12;;;;;;;6.37;3.30;;;2.60;99.90;;;;;;10419433;28;20550;-78
2023/04/02 02:27:55;;;;;;;4.30;1.97;;;2.70;99.90;;;;;;10382086;28;20207;-78
2023/04/02 02:33:47;;;;;;;4.73;1.90;;;2.70;99.90;;;;;;10405620;28;20235;-78
2023/04/02 02:39:24;;;;;;;4.37;1.50;;;2.80;99.90;;;;;;10449639;28;20230;-79
2023/04/02 02:44:47;;;;;;;3.03;1.60;;;2.80;99.90;;;;;;10477616;28;20271;-77
2023/04/02 02:50:21;;;;;;;3.20;1.77;;;2.70;99.90;;;;;;10463013;28;20472;-77
2023/04/02 02:55:45;;;;;;;4.80;1.67;;;2.70;99.90;;;;;;10457228;28;20247;-77
2023/04/02 03:01:17;;;;;;;5.63;2.13;;;2.80;99.90;;;;;;10443721;28;20285;-78
2023/04/02 03:06:41;;;;;;;4.83;1.70;;;2.80;99.90;;;;;;10406540;28;20229;-78
2023/04/02 03:12:31;;;;;;;7.60;2.33;;;2.80;99.90;;;;;;10435704;28;20226;-77
2023/04/02 03:17:56;;;;;;;4.77;1.47;;;2.90;99.90;;;;;;10421455;28;20221;-76
2023/04/02 03:23:26;;;;;;;5.27;1.20;;;2.80;99.90;;;;;;10428108;28;20520;-78
2023/04/02 03:29:17;;;;;;;2.90;1.50;;;2.70;99.90;;;;;;10380563;28;20564;-77
2023/04/02 03:34:45;;;;;;;3.70;1.80;;;2.70;99.90;;;;;;10428907;28;20221;-79
2023/04/02 03:40:19;;;;;;;6.23;2.30;;;2.60;99.90;;;;;;10425856;28;20202;-79
2023/04/02 03:45:47;;;;;;;4.83;2.30;;;2.70;99.90;;;;;;10420862;28;20237;-76
2023/04/02 03:51:28;;;;;;;3.97;2.30;;;2.70;99.90;;;;;;10432904;28;20549;-80
2023/04/02 03:56:52;;;;;;;3.87;1.33;;;2.70;99.90;;;;;;10477929;28;20196;-75
2023/04/02 04:02:44;;;;;;;1.60;1.10;;;2.70;99.90;;;;;;10427309;28;20204;-77
2023/04/02 04:08:13;;;;;;;2.77;1.33;;;2.70;99.90;;;;;;10436964;28;20205;-78
2023/04/02 04:13:42;;;;;;;4.50;3.53;;;2.80;99.90;;;;;;10428573;28;20225;-76
2023/04/02 04:19:23;;;;;;;3.37;1.40;;;2.80;99.90;;;;;;10427809;28;20196;-76
2023/04/02 04:24:46;;;;;;;4.50;1.67;;;2.90;99.90;;;;;;10437877;28;20203;-78
2023/04/02 04:30:23;;;;;;;3.97;1.40;;;2.90;99.90;;;;;;10436540;28;20229;-78
2023/04/02 04:35:52;;;;;;;4.87;2.67;;;2.80;99.90;;;;;;10400694;28;20226;-78
2023/04/02 04:41:20;;;;;;;4.67;1.93;;;2.90;99.90;;;;;;10470498;28;20283;-75
2023/04/02 04:46:58;;;;;;;4.70;1.70;;;2.90;99.90;;;;;;10482439;28;20202;-78
2023/04/02 04:52:20;;;;;;;9.13;3.40;;;2.80;99.90;;;;;;10462006;28;20231;-76
2023/04/02 04:57:44;;;;;;;4.17;1.60;;;2.80;99.90;;;;;;10395066;28;20240;-78
2023/04/02 05:03:30;;;;;;;8.77;4.10;;;2.90;99.90;;;;;;10435140;28;20499;-77
2023/04/02 05:08:58;;;;;;;7.77;2.50;;;2.90;99.90;;;;;;10433817;28;20475;-76
2023/04/02 05:14:22;;;;;;;6.10;1.77;;;2.90;99.90;;;;;;10426017;28;20416;-78
2023/04/02 05:19:50;;;;;;;3.90;2.00;;;3.00;99.90;;;;;;10438615;28;20193;-79
2023/04/02 05:25:22;;;;;;;6.67;2.30;;;3.00;99.90;;;;;;10437863;28;20281;-79
2023/04/02 05:31:12;;;;;;;6.83;2.33;;;3.00;99.90;;;;;;10439565;28;20207;-80
2023/04/02 05:36:34;;;;;;;4.57;1.57;;;3.10;99.90;;;;;;10433842;28;20234;-78
2023/04/02 05:42:06;;;;;;;5.67;2.40;;;3.00;99.90;;;;;;10397710;28;20539;-76
2023/04/02 05:47:43;;;;;;;12.93;5.50;;;3.10;99.90;;;;;;10400292;28;20395;-75
2023/04/02 05:53:24;;;;;;;27.03;13.43;;;3.00;99.90;;;;;;10435545;28;20491;-75
2023/04/02 05:59:07;;;;;;;26.10;10.57;;;3.10;99.90;;;;;;10479416;28;20192;-76
2023/04/02 06:04:52;;;;;;;6.17;2.93;;;3.10;99.90;;;;;;10437960;28;20200;-77
2023/04/02 06:10:57;;;;;;;5.23;2.50;;;3.00;99.90;;;;;;10394432;28;20200;-78
2023/04/02 06:16:24;;;;;;;4.53;1.90;;;3.00;99.90;;;;;;10462305;28;20214;-78
2023/04/02 06:21:48;;;;;;;5.90;2.50;;;3.00;99.90;;;;;;10463727;28;20212;-78
2023/04/02 06:27:18;;;;;;;6.83;2.20;;;3.00;99.90;;;;;;10475425;28;20238;-75
2023/04/02 06:32:40;;;;;;;8.60;2.23;;;3.10;99.90;;;;;;10465841;28;20596;-78
2023/04/02 06:38:10;;;;;;;8.20;3.47;;;3.10;99.90;;;;;;10500779;28;20522;-77
2023/04/02 06:43:46;;;;;;;8.37;3.80;;;3.20;99.90;;;;;;10485557;28;20242;-78
2023/04/02 06:50:04;;;;;;;5.60;2.30;;;3.10;99.90;;;;;;10435551;28;20212;-77
2023/04/02 06:55:32;;;;;;;7.23;2.40;;;3.20;99.90;;;;;;10459611;28;20239;-80
2023/04/02 07:00:54;;;;;;;6.70;2.83;;;3.20;99.90;;;;;;10484025;28;20425;-78
2023/04/02 07:06:27;;;;;;;9.03;4.30;;;3.20;99.90;;;;;;10455367;28;20238;-77
2023/04/02 07:11:52;;;;;;;9.33;4.00;;;3.20;99.90;;;;;;10457730;28;20232;-78
2023/04/02 07:17:16;;;;;;;6.80;2.80;;;3.30;99.90;;;;;;10474113;28;20278;-76
2023/04/02 07:22:37;;;;;;;9.30;2.77;;;3.20;99.90;;;;;;10441240;28;20602;-79
2023/04/02 07:28:00;;;;;;;14.57;5.03;;;3.30;99.90;;;;;;10446781;28;20206;-77
2023/04/02 07:33:28;;;;;;;8.47;4.90;;;3.40;99.90;;;;;;10439553;28;20435;-78
2023/04/02 07:38:50;;;;;;;5.10;2.67;;;3.40;99.90;;;;;;10418434;28;20280;-77
2023/04/02 07:44:11;;;;;;;6.47;2.73;;;3.40;99.90;;;;;;10403168;28;20525;-77
2023/04/02 07:49:32;;;;;;;6.00;2.83;;;3.50;99.90;;;;;;10414869;28;20197;-77
2023/04/02 07:54:53;;;;;;;6.87;3.87;;;3.60;99.90;;;;;;10420522;28;20464;-75
2023/04/02 08:00:15;;;;;;;5.07;2.60;;;3.70;99.90;;;;;;10430256;28;20203;-76
2023/04/02 08:05:36;;;;;;;5.10;2.10;;;3.90;99.90;;;;;;10441698;28;20231;-76
2023/04/02 08:10:57;;;;;;;3.97;1.83;;;3.90;99.90;;;;;;10443108;28;20198;-76
2023/04/02 08:16:18;;;;;;;6.37;2.50;;;4.20;99.90;;;;;;10442852;28;20222;-76
2023/04/02 08:21:40;;;;;;;2.47;1.50;;;4.40;99.90;;;;;;10398245;28;20219;-77
2023/04/02 08:27:01;;;;;;;5.47;1.67;;;4.50;99.90;;;;;;10401579;28;20232;-75
2023/04/02 08:32:23;;;;;;;4.23;1.93;;;4.50;99.90;;;;;;10441356;28;20260;-76
2023/04/02 08:37:45;;;;;;;6.27;2.63;;;4.80;99.90;;;;;;10422839;28;20289;-77
2023/04/02 08:43:22;;;;;;;6.73;1.97;;;5.00;99.90;;;;;;10441350;28;20247;-76
2023/04/02 08:48:50;;;;;;;5.97;2.20;;;4.90;99.90;;;;;;10426596;28;20214;-78
2023/04/02 08:54:31;;;;;;;10.40;2.77;;;5.00;99.90;;;;;;10471226;28;20272;-78
2023/04/02 09:00:25;;;;;;;5.60;2.37;;;4.90;99.90;;;;;;10472869;28;20271;-78
2023/04/02 09:05:49;;;;;;;4.83;2.80;;;5.00;99.90;;;;;;10438992;28;20206;-77
2023/04/02 09:11:21;;;;;;;3.23;1.83;;;5.30;99.90;;;;;;10402144;28;20230;-77
2023/04/02 09:16:51;;;;;;;5.27;2.33;;;5.30;98.10;;;;;;10399509;28;20201;-78
2023/04/02 09:22:30;;;;;;;4.70;1.77;;;5.50;97.10;;;;;;10408229;28;20261;-80
2023/04/02 09:27:54;;;;;;;4.33;2.00;;;5.90;95.50;;;;;;10439390;28;20257;-78
2023/04/02 09:33:15;;;;;;;5.47;2.33;;;6.10;92.20;;;;;;10439457;28;20223;-78
2023/04/02 09:38:36;;;;;;;7.50;2.30;;;6.50;85.10;;;;;;10415613;28;20503;-78
2023/04/02 09:44:23;;;;;;;3.73;2.00;;;6.40;86.30;;;;;;10411154;28;20271;-79
2023/04/02 09:49:45;;;;;;;3.33;1.80;;;6.30;80.80;;;;;;10397145;28;20203;-78
2023/04/02 09:55:41;;;;;;;4.73;2.33;;;6.00;81.10;;;;;;10405190;28;20267;-78
2023/04/02 10:01:03;;;;;;;4.03;2.10;;;6.00;89.20;;;;;;10415990;28;20396;-77
2023/04/02 10:06:26;;;;;;;4.23;1.40;;;5.90;79.60;;;;;;10432112;28;20207;-78
2023/04/02 10:11:49;;;;;;;2.60;1.40;;;5.60;70.30;;;;;;10438592;28;20195;-78
2023/04/02 10:17:22;;;;;;;4.80;1.60;;;6.00;59.70;;;;;;10437233;28;20367;-79
2023/04/02 10:22:44;;;;;;;5.97;2.20;;;7.60;45.60;;;;;;10436218;28;20208;-79
2023/04/02 10:28:45;;;;;;;2.43;1.30;;;7.70;33.20;;;;;;10436763;28;20390;-79
2023/04/02 10:34:18;;;;;;;3.47;1.60;;;7.50;29.20;;;;;;10548887;28;20232;-78
2023/04/02 10:40:09;;;;;;;4.23;1.80;;;8.10;29.90;;;;;;10558565;28;20539;-79
2023/04/02 10:45:39;;;;;;;4.67;1.80;;;8.40;26.60;;;;;;10458808;28;20260;-77
2023/04/02 10:51:24;;;;;;;5.10;1.80;;;7.80;25.60;;;;;;10474539;28;20203;-78
2023/04/02 10:56:46;;;;;;;3.33;1.43;;;8.60;25.10;;;;;;10469234;28;20260;-79
2023/04/02 11:02:30;;;;;;;19.67;8.40;;;9.70;20.60;;;;;;10473458;28;20323;-79
2023/04/02 11:08:08;;;;;;;9.20;3.70;;;10.60;17.80;;;;;;10426748;28;20219;-79
2023/04/02 11:13:56;;;;;;;4.47;1.60;;;11.40;15.20;;;;;;10305758;28;20239;-77
2023/04/02 11:19:21;;;;;;;6.80;3.00;;;11.20;13.90;;;;;;10329724;28;20321;-77
2023/04/02 11:25:20;;;;;;;5.50;1.97;;;11.80;11.90;;;;;;10397344;28;20195;-80
2023/04/02 11:30:41;;;;;;;8.33;3.40;;;11.80;11.50;;;;;;10421035;28;20273;-78
2023/04/02 11:36:02;;;;;;;4.70;2.47;;;11.60;11.90;;;;;;10435689;28;20226;-78
2023/04/02 11:42:03;;;;;;;3.37;1.33;;;11.30;11.70;;;;;;10444203;28;20213;-78
2023/04/02 11:47:28;;;;;;;4.50;1.63;;;11.30;11.00;;;;;;10476539;28;20340;-80
2023/04/02 11:52:51;;;;;;;4.00;1.63;;;11.10;10.80;;;;;;10476765;28;20218;-80
2023/04/02 11:58:40;;;;;;;5.63;2.27;;;10.60;11.60;;;;;;10434195;28;20209;-79
2023/04/02 12:04:04;;;;;;;5.23;2.13;;;11.10;11.10;;;;;;10394665;28;20398;-79
2023/04/02 12:09:53;;;;;;;7.20;2.20;;;11.30;11.30;;;;;;10397070;28;20245;-78
2023/04/02 12:15:23;;;;;;;4.43;1.50;;;11.00;11.10;;;;;;10434928;28;20526;-78
2023/04/02 12:20:48;;;;;;;5.87;2.00;;;10.60;10.50;;;;;;10441389;28;20213;-77
2023/04/02 12:26:30;;;;;;;3.83;1.80;;;10.80;10.40;;;;;;10412660;28;20275;-78
2023/04/02 12:31:54;;;;;;;4.20;2.10;;;10.50;10.40;;;;;;10422608;28;20204;-79
2023/04/02 12:37:26;;;;;;;8.70;2.70;;;10.40;11.20;;;;;;10400412;28;20192;-79
2023/04/02 12:42:48;;;;;;;2.63;2.00;;;10.60;12.40;;;;;;10409372;28;20242;-79
2023/04/02 12:48:11;;;;;;;12.53;3.20;;;10.40;10.40;;;;;;10482220;28;20204;-79
2023/04/02 12:53:40;;;;;;;6.00;1.70;;;10.20;11.80;;;;;;10483097;28;20211;-77
2023/04/02 12:59:01;;;;;;;5.43;2.50;;;10.30;11.00;;;;;;10471505;28;20219;-78
2023/04/02 13:04:23;;;;;;;6.83;3.67;;;10.00;10.70;;;;;;10400432;28;20201;-80
2023/04/02 13:09:47;;;;;;;3.03;1.70;;;10.20;12.00;;;;;;10431903;28;20222;-78
2023/04/02 13:15:22;;;;;;;3.47;1.57;;;9.70;11.40;;;;;;10428448;28;20312;-79
2023/04/02 13:20:57;;;;;;;4.80;2.00;;;8.90;10.90;;;;;;10398914;28;20205;-78
2023/04/02 13:26:26;;;;;;;5.27;1.83;;;8.80;12.70;;;;;;10401921;28;20294;-79
2023/04/02 13:31:48;;;;;;;5.40;1.90;;;9.00;12.90;;;;;;10423776;28;20241;-80
2023/04/02 13:37:11;;;;;;;8.43;2.50;;;8.90;13.70;;;;;;10438222;28;20266;-79
2023/04/02 13:42:32;;;;;;;11.20;2.40;;;8.80;12.90;;;;;;10466053;28;20560;-78
2023/04/02 13:47:56;;;;;;;8.27;1.80;;;7.90;13.40;;;;;;10459550;28;20227;-79
2023/04/02 13:53:31;;;;;;;4.97;1.70;;;8.00;14.50;;;;;;10479715;28;20506;-78
2023/04/02 13:58:52;;;;;;;3.60;1.40;;;7.60;12.70;;;;;;10479710;28;20188;-79
2023/04/02 14:04:20;;;;;;;4.37;1.63;;;7.30;14.20;;;;;;10413495;28;20206;-79
2023/04/02 14:10:28;;;;;;;3.73;1.33;;;7.30;14.50;;;;;;10409664;28;20197;-79
2023/04/02 14:17:01;;;;;;;5.50;1.67;;;7.40;15.00;;;;;;10440562;28;20273;-78
2023/04/02 14:22:44;;;;;;;4.27;1.70;;;7.50;13.70;;;;;;10379416;28;20209;-80
2023/04/02 14:28:41;;;;;;;3.90;2.30;;;7.50;14.30;;;;;;10312587;28;20207;-78
2023/04/02 14:34:34;;;;;;;12.70;8.07;;;7.30;13.60;;;;;;10353833;28;20574;-77
2023/04/02 14:40:30;;;;;;;9.33;2.80;;;7.30;14.70;;;;;;10335780;28;20224;-78
2023/04/02 14:45:57;;;;;;;7.23;4.27;;;6.90;13.80;;;;;;10352200;28;20229;-78
2023/04/02 14:51:32;;;;;;;4.23;2.00;;;6.90;14.80;;;;;;10337270;28;20252;-78
2023/04/02 14:57:01;;;;;;;5.43;1.70;;;6.70;13.70;;;;;;10385159;28;20417;-78
2023/04/02 15:02:26;;;;;;;5.27;1.80;;;6.40;12.90;;;;;;10419045;28;20204;-77
2023/04/02 15:08:26;;;;;;;22.83;10.53;;;5.90;13.40;;;;;;10428936;28;20431;-78
2023/04/02 15:14:08;;;;;;;16.67;7.10;;;5.90;14.40;;;;;;10435346;28;20224;-78
2023/04/02 15:19:29;;;;;;;10.67;3.37;;;5.80;13.20;;;;;;10410547;28;20211;-79
2023/04/02 15:25:05;;;;;;;8.53;3.70;;;5.90;15.10;;;;;;10413947;28;20254;-79
2023/04/02 15:30:39;;;;;;;5.80;2.73;;;5.90;15.30;;;;;;10418813;28;20191;-79
2023/04/02 15:36:39;;;;;;;4.93;2.70;;;5.90;14.60;;;;;;10417640;28;20231;-78
2023/04/02 15:42:26;;;;;;;5.37;2.13;;;5.90;15.00;;;;;;10421055;28;20248;-79
2023/04/02 15:48:15;;;;;;;4.70;1.90;;;6.00;16.80;;;;;;10435657;28;20194;-78
2023/04/02 15:54:20;;;;;;;5.67;2.07;;;5.70;16.30;;;;;;10423812;28;20407;-78
2023/04/02 16:00:12;;;;;;;3.47;1.37;;;5.60;16.90;;;;;;10475289;28;20512;-78
2023/04/02 16:05:40;;;;;;;7.03;1.67;;;5.40;18.10;;;;;;10522292;28;20387;-78
2023/04/02 16:11:01;;;;;;;9.27;3.47;;;5.30;18.70;;;;;;10508317;28;20263;-77
2023/04/02 16:16:34;;;;;;;6.77;2.90;;;5.20;19.90;;;;;;10508303;28;20229;-78
2023/04/02 16:22:17;;;;;;;7.13;2.73;;;5.00;20.40;;;;;;10502787;28;20264;-78
2023/04/02 16:27:44;;;;;;;5.27;2.73;;;5.00;20.60;;;;;;10481985;28;20259;-79
2023/04/02 16:33:11;;;;;;;4.97;2.63;;;5.00;21.50;;;;;;10474637;28;20463;-78
2023/04/02 16:38:58;;;;;;;7.43;2.47;;;5.00;22.90;;;;;;10434685;28;20210;-77
2023/04/02 16:44:42;;;;;;;5.97;2.80;;;4.90;24.10;;;;;;10483478;28;20233;-79
2023/04/02 16:50:38;;;;;;;6.67;2.27;;;4.80;26.00;;;;;;10481992;28;20186;-77
2023/04/02 16:56:22;;;;;;;8.70;2.17;;;4.50;28.40;;;;;;10424358;28;20420;-78
2023/04/02 17:01:46;;;;;;;4.77;1.70;;;;;;;;;;10420543;28;20227;-77
2023/04/02 17:07:30;;;;;;;5.13;2.20;;;4.20;39.40;;;;;;10403313;28;20226;-78
2023/04/02 17:13:09;;;;;;;3.07;1.80;;;3.90;45.90;;;;;;10437566;28;20527;-76
2023/04/02 17:18:32;;;;;;;5.37;2.77;;;3.90;56.10;;;;;;10436970;28;20204;-79
2023/04/02 17:23:59;;;;;;;9.83;3.00;;;3.90;70.90;;;;;;10434097;28;20205;-77
2023/04/02 17:29:32;;;;;;;6.47;2.17;;;3.70;81.90;;;;;;10478029;28;20224;-77
2023/04/02 17:35:24;;;;;;;5.87;2.67;;;3.60;87.20;;;;;;10462278;28;20333;-78
2023/04/02 17:41:04;;;;;;;8.33;3.50;;;3.50;90.90;;;;;;10460753;28;20211;-78
2023/04/02 17:46:29;;;;;;;11.97;4.63;;;;;;;;;;10466366;28;20201;-77
2023/04/02 17:52:02;;;;;;;6.70;3.33;;;;;;;;;;10415699;28;20227;-79
2023/04/02 17:57:42;;;;;;;10.43;4.00;;;;;;;;;;10479942;28;20278;-77
2023/04/02 18:03:27;;;;;;;6.97;2.90;;;;;;;;;;10417079;28;20208;-78
2023/04/02 18:08:56;;;;;;;7.97;3.57;;;;;;;;;;10433880;28;20296;-76
2023/04/02 18:14:32;;;;;;;13.30;3.77;;;;;;;;;;10434877;28;20232;-77
2023/04/02 18:19:59;;;;;;;9.07;2.57;;;;;;;;;;10420799;28;20201;-76
2023/04/02 18:25:37;;;;;;;9.93;2.87;;;;;;;;;;10429838;28;20205;-78
2023/04/02 18:31:02;;;;;;;9.97;3.93;;;;;;;;;;10417396;28;20236;-77
2023/04/02 18:36:40;;;;;;;12.60;3.57;;;;;;;;;;10416920;28;20312;-77
2023/04/02 18:42:09;;;;;;;9.97;3.37;;;;;;;;;;10431432;28;20226;-77
2023/04/02 18:47:37;;;;;;;8.27;3.47;;;;;;;;;;10395167;28;20444;-77
2023/04/02 18:53:01;;;;;;;9.47;2.47;;;;;;;;;;10398160;28;20285;-77
2023/04/02 18:58:43;;;;;;;13.30;3.47;;;;;;;;;;10394837;28;20439;-78
2023/04/02 19:04:19;;;;;;;9.80;3.27;;;;;;;;;;10484615;28;20204;-78
2023/04/02 19:09:42;;;;;;;8.00;3.03;;;;;;;;;;10487367;28;20262;-77
2023/04/02 19:15:14;;;;;;;10.57;3.20;;;;;;;;;;10498667;28;20243;-77
2023/04/02 19:20:40;;;;;;;13.40;5.53;;;;;;;;;;10510529;28;20291;-79
2023/04/02 19:26:05;;;;;;;12.30;5.07;;;;;;;;;;10487521;28;20569;-77
2023/04/02 19:31:48;;;;;;;8.03;3.33;;;3.10;99.90;;;;;;10506454;28;20196;-79
2023/04/02 19:37:27;;;;;;;11.23;4.63;;;2.90;99.90;;;;;;10449921;28;20464;-77
2023/04/02 19:42:49;;;;;;;12.03;5.60;;;;;;;;;;10476153;28;20235;-80
2023/04/02 19:48:11;;;;;;;7.67;2.57;;;;;;;;;;10476112;28;20219;-77
2023/04/02 19:53:34;;;;;;;9.47;3.07;;;;;;;;;;10466099;28;20243;-77
2023/04/02 19:58:55;;;;;;;7.80;3.37;;;;;;;;;;10474359;28;20279;-77
2023/04/02 20:04:18;;;;;;;7.60;2.67;;;;;;;;;;10409712;28;20381;-77
2023/04/02 20:09:39;;;;;;;12.43;2.97;;;;;;;;;;10419175;28;20201;-77
2023/04/02 20:15:02;;;;;;;6.87;2.60;;;;;;;;;;10435426;28;20216;-78
2023/04/02 20:20:23;;;;;;;7.73;2.33;;;;;;;;;;10420489;28;20197;-78
2023/04/02 20:25:45;;;;;;;7.03;2.23;;;;;;;;;;10412091;28;20427;-77
2023/04/02 20:31:07;;;;;;;6.27;2.53;;;;;;;;;;10424123;28;20193;-77
2023/04/02 20:36:28;;;;;;;6.10;2.63;;;;;;;;;;10427317;28;20235;-77
2023/04/02 20:41:50;;;;;;;7.23;2.80;;;;;;;;;;10384803;28;20288;-79
2023/04/02 20:47:12;;;;;;;5.20;1.93;;;;;;;;;;10401254;28;20272;-77
2023/04/02 20:52:33;;;;;;;7.23;2.33;;;;;;;;;;10429792;28;20200;-77
2023/04/02 20:57:55;;;;;;;6.17;2.40;;;;;;;;;;10482713;28;20216;-77
2023/04/02 21:03:16;;;;;;;7.10;2.50;;;;;;;;;;10403338;28;20208;-77
2023/04/02 21:08:38;;;;;;;6.37;2.40;;;;;;;;;;10427534;28;20207;-77
2023/04/02 21:13:59;;;;;;;5.23;2.33;;;;;;;;;;10439812;28;20212;-79
2023/04/02 21:19:21;;;;;;;6.53;3.27;;;;;;;;;;10439929;28;20204;-77
2023/04/02 21:24:42;;;;;;;8.53;2.50;;;;;;;;;;10407783;28;20225;-76
2023/04/02 21:30:03;;;;;;;4.30;2.00;;;2.10;98.90;;;;;;10419526;28;20205;-77
2023/04/02 21:35:25;;;;;;;5.87;3.07;;;1.90;99.70;;;;;;10418846;28;20231;-77
2023/04/02 21:40:46;;;;;;;8.33;1.73;;;1.90;99.90;;;;;;10429549;28;20305;-77
2023/04/02 21:46:08;;;;;;;7.43;2.83;;;1.80;99.90;;;;;;10425064;28;20435;-77
2023/04/02 21:51:31;;;;;;;6.70;2.50;;;1.70;99.90;;;;;;10420644;28;20248;-77
2023/04/02 21:56:52;;;;;;;6.33;2.50;;;1.70;99.90;;;;;;10465841;28;20232;-77
2023/04/02 22:02:14;;;;;;;10.87;4.37;;;1.80;99.90;;;;;;10444049;28;20246;-77
2023/04/02 22:07:35;;;;;;;9.77;2.27;;;1.60;99.90;;;;;;10417237;28;20216;-78
2023/04/02 22:12:56;;;;;;;8.03;3.20;;;1.60;99.90;;;;;;10408239;28;20255;-77
2023/04/02 22:18:18;;;;;;;7.63;3.40;;;1.60;99.90;;;;;;10396436;28;20229;-77
2023/04/02 22:23:40;;;;;;;17.00;6.67;;;1.60;99.90;;;;;;10397210;28;20509;-76
2023/04/02 22:29:01;;;;;;;8.13;2.77;;;1.60;99.90;;;;;;10424746;28;20212;-78
2023/04/02 22:34:22;;;;;;;5.33;2.17;;;1.50;99.90;;;;;;10436971;28;20685;-79
2023/04/02 22:39:44;;;;;;;6.60;2.17;;;1.40;99.90;;;;;;10435529;28;20508;-76
2023/04/02 22:45:06;;;;;;;7.43;2.13;;;1.30;99.90;;;;;;10477587;28;20277;-78
2023/04/02 22:50:28;;;;;;;10.43;2.53;;;1.40;99.90;;;;;;10453301;28;20234;-80
2023/04/02 22:55:51;;;;;;;6.60;2.03;;;1.40;99.90;;;;;;10478607;28;20216;-79
2023/04/02 23:01:14;;;;;;;5.07;1.83;;;1.40;99.90;;;;;;10458047;28;20193;-80
2023/04/02 23:06:35;;;;;;;6.67;1.87;;;1.40;99.90;;;;;;10421217;28;20209;-78
2023/04/02 23:11:56;;;;;;;5.37;1.83;;;1.30;99.90;;;;;;10435719;28;20518;-77
2023/04/02 23:17:17;;;;;;;4.63;1.83;;;1.30;99.90;;;;;;10436548;28;20216;-78
2023/04/02 23:22:38;;;;;;;4.57;2.07;;;1.30;99.90;;;;;;10431273;28;20201;-78
2023/04/02 23:27:59;;;;;;;7.13;1.90;;;1.40;99.90;;;;;;10398420;28;20214;-77
2023/04/02 23:33:20;;;;;;;6.80;1.90;;;1.40;99.90;;;;;;10406257;28;20252;-77
2023/04/02 23:38:41;;;;;;;5.87;1.87;;;1.30;99.90;;;;;;10436149;28;20382;-77
2023/04/02 23:44:03;;;;;;;6.00;2.07;;;1.40;99.90;;;;;;10434609;28;20232;-77
2023/04/02 23:49:25;;;;;;;8.07;2.27;;;1.40;99.90;;;;;;10438926;28;20205;-78
2023/04/02 23:54:46;;;;;;;5.13;1.77;;;1.50;99.90;;;;;;10476236;28;20225;-76
